createdAt,value
2019-04-16T00:02:20.573Z,48.77
2019-04-16T00:05:03.979Z,58.43
2019-04-16T00:07:51.998Z,47.10
2019-04-16T00:10:39.881Z,49.00
2019-04-16T00:13:43.018Z,50.67
2019-04-16T00:16:13.038Z,51.27
2019-04-16T00:18:56.356Z,51.97
2019-04-16T00:21:38.508Z,48.13
2019-04-16T00:24:18.234Z,51.43
2019-04-16T00:26:46.267Z,51.33
2019-04-16T00:29:15.228Z,45.17
2019-04-16T00:31:47.497Z,52.40
2019-04-16T00:34:16.606Z,50.00
2019-04-16T00:36:48.451Z,49.33
2019-04-16T00:39:16.417Z,54.50
2019-04-16T00:41:45.535Z,49.40
2019-04-16T00:44:14.760Z,52.53
2019-04-16T00:46:43.821Z,53.33
2019-04-16T00:49:12.793Z,52.40
2019-04-16T00:51:41.953Z,49.50
2019-04-16T00:54:11.360Z,49.37
2019-04-16T00:56:40.625Z,50.13
2019-04-16T00:59:09.566Z,49.57
2019-04-16T01:01:38.560Z,50.53
2019-04-16T01:04:07.445Z,52.77
2019-04-16T01:06:37.874Z,50.70
2019-04-16T01:09:07.762Z,49.83
2019-04-16T01:11:36.913Z,50.83
2019-04-16T01:14:05.952Z,50.30
2019-04-16T01:16:34.944Z,56.83
2019-04-16T01:19:04.016Z,53.60
2019-04-16T01:21:33.039Z,53.83
2019-04-16T01:24:02.073Z,51.80
2019-04-16T01:26:31.044Z,52.23
2019-04-16T01:29:06.094Z,53.73
2019-04-16T01:31:49.895Z,63.27
2019-04-16T01:34:47.024Z,48.80
2019-04-16T01:37:45.660Z,53.03
2019-04-16T01:40:18.667Z,49.87
2019-04-16T01:42:47.592Z,51.50
2019-04-16T01:45:16.514Z,51.80
2019-04-16T01:47:45.313Z,52.90
2019-04-16T01:50:15.247Z,51.20
2019-04-16T01:52:44.123Z,54.67
2019-04-16T01:55:13.178Z,47.67
2019-04-16T01:57:42.139Z,55.20
2019-04-16T02:00:12.357Z,53.10
2019-04-16T02:02:43.529Z,53.50
2019-04-16T02:05:12.021Z,54.70
2019-04-16T02:07:41.009Z,56.27
2019-04-16T02:10:10.032Z,52.47
2019-04-16T02:12:43.352Z,53.20
2019-04-16T02:15:09.720Z,57.80
2019-04-16T02:17:38.789Z,54.73
2019-04-16T02:20:07.768Z,55.20
2019-04-16T02:22:36.800Z,58.37
2019-04-16T02:25:05.838Z,55.77
2019-04-16T02:27:34.893Z,55.37
2019-04-16T02:30:05.182Z,50.80
2019-04-16T02:32:34.840Z,55.03
2019-04-16T02:35:03.976Z,59.33
2019-04-16T02:37:36.385Z,52.97
2019-04-16T02:40:03.820Z,57.17
2019-04-16T02:42:32.960Z,53.13
2019-04-16T02:45:02.209Z,55.40
2019-04-16T02:47:31.380Z,57.40
2019-04-16T02:50:01.644Z,62.00
2019-04-16T02:52:40.221Z,54.90
2019-04-16T02:55:18.211Z,52.53
2019-04-16T02:57:59.971Z,56.67
2019-04-16T03:00:42.961Z,49.53
2019-04-16T03:03:16.171Z,60.07
2019-04-16T03:05:48.093Z,56.33
2019-04-16T03:08:17.030Z,58.13
2019-04-16T03:10:46.033Z,56.30
2019-04-16T03:13:15.041Z,60.70
2019-04-16T03:16:02.776Z,59.33
2019-04-16T03:18:40.265Z,67.67
2019-04-16T03:21:09.593Z,53.90
2019-04-16T03:23:38.529Z,62.63
2019-04-16T03:26:07.400Z,53.80
2019-04-16T03:28:36.348Z,47.90
2019-04-16T03:31:08.709Z,61.50
2019-04-16T03:33:35.999Z,49.33
2019-04-16T03:36:04.935Z,45.37
2019-04-16T03:38:36.679Z,43.30
2019-04-16T03:41:04.769Z,40.60
2019-04-16T03:43:33.893Z,42.00
2019-04-16T03:46:02.769Z,43.53
2019-04-16T03:48:31.628Z,40.33
2019-04-16T03:51:03.469Z,37.80
2019-04-16T03:53:31.288Z,38.50
2019-04-16T03:56:00.175Z,34.03
2019-04-16T03:58:29.152Z,34.97
2019-04-16T04:00:58.208Z,31.60
2019-04-16T04:03:27.309Z,35.83
2019-04-16T04:05:56.764Z,39.53
2019-04-16T04:08:26.533Z,35.67
2019-04-16T04:10:55.549Z,32.50
2019-04-16T04:13:24.438Z,35.77
2019-04-16T04:15:55.007Z,36.43
2019-04-16T04:18:24.212Z,32.37
2019-04-16T04:20:53.292Z,35.77
2019-04-16T04:23:22.204Z,33.93
2019-04-16T04:25:51.192Z,39.90
2019-04-16T04:28:20.633Z,31.30
2019-04-16T04:30:49.709Z,34.57
2019-04-16T04:33:41.823Z,34.40
2019-04-16T04:36:10.850Z,33.47
2019-04-16T04:38:40.408Z,40.53
2019-04-16T04:41:09.682Z,32.93
2019-04-16T04:43:38.840Z,34.07
2019-04-16T04:46:12.984Z,30.83
2019-04-16T04:49:00.191Z,32.80
2019-04-16T04:51:28.482Z,32.10
2019-04-16T04:53:57.683Z,37.17
2019-04-16T04:56:27.953Z,40.80
2019-04-16T04:58:57.398Z,35.63
2019-04-16T05:01:26.281Z,37.20
2019-04-16T05:04:21.184Z,41.57
2019-04-16T05:06:50.468Z,33.20
2019-04-16T05:09:19.638Z,33.77
2019-04-16T05:11:49.583Z,40.30
2019-04-16T05:14:18.729Z,38.13
2019-04-16T05:16:47.721Z,38.87
2019-04-16T05:19:16.683Z,35.60
2019-04-16T05:21:49.692Z,33.37
2019-04-16T05:24:16.308Z,35.20
2019-04-16T05:26:45.264Z,35.90
2019-04-16T05:29:17.037Z,39.87
2019-04-16T05:31:45.025Z,42.67
2019-04-16T05:34:17.197Z,40.07
2019-04-16T05:36:47.544Z,37.10
2019-04-16T05:39:15.420Z,33.77
2019-04-16T05:41:44.443Z,36.17
2019-04-16T05:44:13.465Z,37.13
2019-04-16T05:46:46.498Z,36.47
2019-04-16T05:49:13.470Z,33.90
2019-04-16T05:51:42.500Z,38.17
2019-04-16T05:54:29.524Z,39.90
2019-04-16T05:56:59.464Z,37.03
2019-04-16T05:59:33.583Z,36.60
2019-04-16T06:02:10.757Z,39.50
2019-04-16T06:04:39.705Z,34.83
2019-04-16T06:07:08.645Z,38.83
2019-04-16T06:09:37.573Z,38.40
2019-04-16T06:12:08.931Z,44.20
2019-04-16T06:14:42.173Z,35.37
2019-04-16T06:17:32.239Z,37.00
2019-04-16T06:20:16.424Z,41.03
2019-04-16T06:22:54.349Z,36.60
2019-04-16T06:25:30.762Z,41.47
2019-04-16T06:28:06.636Z,36.27
2019-04-16T06:31:05.686Z,40.83
2019-04-16T06:34:08.797Z,39.53
2019-04-16T06:36:47.545Z,44.97
2019-04-16T06:39:50.698Z,41.60
2019-04-16T06:42:23.921Z,43.57
2019-04-16T06:44:54.817Z,35.93
2019-04-16T06:47:42.035Z,40.73
2019-04-16T06:50:32.859Z,43.13
2019-04-16T06:53:25.048Z,38.57
2019-04-16T06:56:16.507Z,38.23
2019-04-16T07:01:41.821Z,38.47
2019-04-16T07:01:44.729Z,39.47
2019-04-16T07:04:31.414Z,35.60
2019-04-16T07:07:17.433Z,35.87
2019-04-16T07:09:58.638Z,37.20
2019-04-16T07:12:30.506Z,37.27
2019-04-16T07:14:59.706Z,38.57
2019-04-16T07:17:32.940Z,39.30
2019-04-16T07:19:59.524Z,33.37
2019-04-16T07:22:28.644Z,43.17
2019-04-16T07:25:03.645Z,36.37
2019-04-16T07:27:40.778Z,39.30
2019-04-16T07:30:25.042Z,42.00
2019-04-16T07:33:19.186Z,31.57
2019-04-16T07:35:58.053Z,34.30
2019-04-16T07:38:42.976Z,33.87
2019-04-16T07:41:21.439Z,32.17
2019-04-16T07:44:10.504Z,34.53
2019-04-16T07:46:54.021Z,35.33
2019-04-16T07:49:38.118Z,29.00
2019-04-16T07:52:23.519Z,37.03
2019-04-16T07:55:07.533Z,33.03
2019-04-16T07:57:36.642Z,35.93
2019-04-16T08:00:09.287Z,26.40
2019-04-16T08:02:37.648Z,34.97
2019-04-16T08:05:08.706Z,41.93
2019-04-16T08:07:37.633Z,29.00
2019-04-16T08:10:06.601Z,37.73
2019-04-16T08:12:38.076Z,33.10
2019-04-16T08:15:14.583Z,40.13
2019-04-16T08:17:37.894Z,36.50
2019-04-16T08:20:06.791Z,34.90
2019-04-16T08:22:39.778Z,37.10
2019-04-16T08:25:07.693Z,35.70
2019-04-16T08:27:36.657Z,37.10
2019-04-16T08:30:07.837Z,37.00
2019-04-16T08:32:36.672Z,38.73
2019-04-16T08:35:05.811Z,38.83
2019-04-16T08:37:48.020Z,36.60
2019-04-16T08:40:08.865Z,38.47
2019-04-16T08:42:44.167Z,40.37
2019-04-16T08:45:08.952Z,40.80
2019-04-16T08:47:38.352Z,37.00
2019-04-16T08:50:07.450Z,38.10
2019-04-16T08:52:38.538Z,41.00
2019-04-16T08:55:07.185Z,38.23
2019-04-16T08:57:36.218Z,36.20
2019-04-16T09:00:07.697Z,40.57
2019-04-16T09:02:36.652Z,37.27
2019-04-16T09:05:09.495Z,34.70
2019-04-16T09:07:39.865Z,38.63
2019-04-16T09:10:18.022Z,38.57
2019-04-16T09:12:45.844Z,39.47
2019-04-16T09:15:17.967Z,39.50
2019-04-16T09:17:54.603Z,38.57
2019-04-16T09:20:31.217Z,39.50
2019-04-16T09:23:00.195Z,38.37
2019-04-16T09:25:51.520Z,37.10
2019-04-16T09:28:31.179Z,40.40
2019-04-16T09:31:34.800Z,41.70
2019-04-16T09:34:28.670Z,38.77
2019-04-16T09:37:21.201Z,41.60
2019-04-16T09:40:17.695Z,45.47
2019-04-16T09:42:42.195Z,44.23
2019-04-16T09:45:13.885Z,41.10
2019-04-16T09:47:42.848Z,38.83
2019-04-16T09:50:12.295Z,41.77
2019-04-16T09:52:41.427Z,45.10
2019-04-16T09:55:10.353Z,36.37
2019-04-16T09:57:39.317Z,41.60
2019-04-16T10:00:11.692Z,40.87
2019-04-16T10:02:40.527Z,43.20
2019-04-16T10:05:09.534Z,39.77
2019-04-16T10:07:40.243Z,39.17
2019-04-16T10:10:09.331Z,44.50
2019-04-16T10:12:38.339Z,35.70
2019-04-16T10:15:07.934Z,40.63
2019-04-16T10:17:36.745Z,38.23
2019-04-16T10:20:05.913Z,41.53
2019-04-16T10:22:34.980Z,38.17
2019-04-16T10:25:11.521Z,36.30
2019-04-16T10:27:42.866Z,38.30
2019-04-16T10:30:17.786Z,40.67
2019-04-16T10:32:46.822Z,37.00
2019-04-16T10:35:15.798Z,36.97
2019-04-16T10:37:44.899Z,38.97
2019-04-16T10:40:30.389Z,39.47
2019-04-16T10:43:17.286Z,40.97
2019-04-16T10:45:58.416Z,37.57
2019-04-16T10:48:44.368Z,41.60
2019-04-16T10:51:41.233Z,39.50
2019-04-16T10:54:33.717Z,37.20
2019-04-16T10:57:21.637Z,44.07
2019-04-16T11:00:08.429Z,36.20
2019-04-16T11:02:46.885Z,35.87
2019-04-16T11:05:33.811Z,40.20
2019-04-16T11:08:04.335Z,37.60
2019-04-16T11:10:34.742Z,35.27
2019-04-16T11:13:05.745Z,39.43
2019-04-16T11:15:34.969Z,40.43
2019-04-16T11:18:04.381Z,38.40
2019-04-16T11:20:33.321Z,38.60
2019-04-16T11:23:02.694Z,39.00
2019-04-16T11:25:32.053Z,38.47
2019-04-16T11:28:01.052Z,35.90
2019-04-16T11:30:48.637Z,45.10
2019-04-16T11:33:16.185Z,39.23
2019-04-16T11:35:45.229Z,40.27
2019-04-16T11:38:17.153Z,37.83
2019-04-16T11:40:44.957Z,36.60
2019-04-16T11:43:14.117Z,35.43
2019-04-16T11:45:43.214Z,39.47
2019-04-16T11:48:12.268Z,39.37
2019-04-16T11:50:41.536Z,37.97
2019-04-16T11:53:10.550Z,38.90
2019-04-16T11:55:39.548Z,36.80
2019-04-16T11:58:27.618Z,35.27
2019-04-16T12:01:03.867Z,34.53
2019-04-16T12:03:50.064Z,37.50
2019-04-16T12:06:36.772Z,38.07
2019-04-16T12:09:30.206Z,37.97
2019-04-16T12:12:12.857Z,34.40
2019-04-16T12:14:59.849Z,35.40
2019-04-16T12:17:50.193Z,35.27
2019-04-16T12:20:41.212Z,41.33
2019-04-16T12:23:35.284Z,38.10
2019-04-16T12:26:29.135Z,38.40
2019-04-16T12:29:15.016Z,35.90
2019-04-16T12:32:04.299Z,34.67
2019-04-16T12:34:51.276Z,42.27
2019-04-16T12:37:37.375Z,39.53
2019-04-16T12:40:26.908Z,38.47
2019-04-16T12:43:07.156Z,39.53
2019-04-16T12:45:58.237Z,38.30
2019-04-16T12:48:38.929Z,35.90
2019-04-16T12:51:33.279Z,37.93
2019-04-16T12:54:39.944Z,34.53
2019-04-16T12:57:34.216Z,35.10
2019-04-16T13:00:12.364Z,38.60
2019-04-16T13:03:03.535Z,41.43
2019-04-16T13:05:40.464Z,36.67
2019-04-16T13:08:28.388Z,36.40
2019-04-16T13:11:10.873Z,36.67
2019-04-16T13:13:59.806Z,32.93
2019-04-16T13:16:37.878Z,36.40
2019-04-16T13:19:24.753Z,39.10
2019-04-16T13:21:59.759Z,38.20
2019-04-16T13:24:34.772Z,36.87
2019-04-16T13:27:28.991Z,38.00
2019-04-16T13:30:01.279Z,37.90
2019-04-16T13:32:28.631Z,34.70
2019-04-16T13:34:58.193Z,36.97
2019-04-16T13:37:30.566Z,35.50
2019-04-16T13:40:02.338Z,35.70
2019-04-16T13:42:31.337Z,36.40
2019-04-16T13:45:25.839Z,35.90
2019-04-16T13:47:54.837Z,35.23
2019-04-16T13:50:26.288Z,37.10
2019-04-16T13:53:01.230Z,36.67
2019-04-16T13:55:49.627Z,36.30
2019-04-16T13:58:43.720Z,32.40
2019-04-16T14:01:24.926Z,36.43
2019-04-16T14:03:56.483Z,35.70
2019-04-16T14:06:24.748Z,34.07
2019-04-16T14:08:54.313Z,37.27
2019-04-16T14:11:23.452Z,39.47
2019-04-16T14:13:52.639Z,35.57
2019-04-16T14:16:21.727Z,32.60
2019-04-16T14:18:50.694Z,38.60
2019-04-16T14:21:19.837Z,36.43
2019-04-16T14:23:48.857Z,34.30
2019-04-16T14:26:17.875Z,33.77
2019-04-16T14:28:52.456Z,38.63
2019-04-16T14:31:18.703Z,39.80
2019-04-16T14:33:55.903Z,35.37
2019-04-16T14:36:25.152Z,35.97
2019-04-16T14:38:57.261Z,38.30
2019-04-16T14:41:26.255Z,35.83
2019-04-16T14:44:02.539Z,34.97
2019-04-16T14:46:31.956Z,35.40
2019-04-16T14:49:01.021Z,37.00
2019-04-16T14:51:30.269Z,37.80
2019-04-16T14:54:04.663Z,36.27
2019-04-16T14:56:38.772Z,36.77
2019-04-16T14:59:34.150Z,35.40
2019-04-16T15:02:29.094Z,37.67
2019-04-16T15:05:27.167Z,37.93
2019-04-16T15:08:21.248Z,31.03
2019-04-16T15:11:14.237Z,38.27
2019-04-16T15:14:06.084Z,33.77
2019-04-16T15:16:54.264Z,34.37
2019-04-16T15:19:32.169Z,37.30
2019-04-16T15:22:21.664Z,35.30
2019-04-16T15:25:04.850Z,32.90
2019-04-16T15:27:56.385Z,33.57
2019-04-16T15:30:38.688Z,35.07
2019-04-16T15:33:29.689Z,35.70
2019-04-16T15:36:19.434Z,35.57
2019-04-16T15:38:53.869Z,34.20
2019-04-16T15:41:35.094Z,33.17
2019-04-16T15:44:25.936Z,30.13
2019-04-16T15:47:20.015Z,33.50
2019-04-16T15:49:59.168Z,34.50
2019-04-16T15:52:37.952Z,32.07
2019-04-16T15:55:26.113Z,37.57
2019-04-16T15:58:26.297Z,30.00
2019-04-16T16:01:20.118Z,29.97
2019-04-16T16:04:08.161Z,27.10
2019-04-16T16:06:43.424Z,31.83
2019-04-16T16:09:22.164Z,34.37
2019-04-16T16:11:59.130Z,31.00
2019-04-16T16:14:33.219Z,30.60
2019-04-16T16:16:59.359Z,32.20
2019-04-16T16:19:28.560Z,28.33
2019-04-16T16:21:57.642Z,29.90
2019-04-16T16:24:26.605Z,29.97
2019-04-16T16:26:55.672Z,28.50
2019-04-16T16:29:24.861Z,29.10
2019-04-16T16:31:53.909Z,31.80
2019-04-16T16:34:23.118Z,29.77
2019-04-16T16:36:52.126Z,32.07
2019-04-16T16:39:21.181Z,29.97
2019-04-16T16:41:50.259Z,32.47
2019-04-16T16:44:19.320Z,32.27
2019-04-16T16:47:02.443Z,30.00
2019-04-16T16:49:31.406Z,29.47
2019-04-16T16:52:18.140Z,31.80
2019-04-16T16:54:47.816Z,30.83
2019-04-16T16:57:21.268Z,32.37
2019-04-16T16:59:54.412Z,30.57
2019-04-16T17:02:45.357Z,30.30
2019-04-16T17:05:19.301Z,29.70
2019-04-16T17:07:50.699Z,32.17
2019-04-16T17:10:19.215Z,36.00
2019-04-16T17:12:48.384Z,29.03
2019-04-16T17:15:17.514Z,31.03
2019-04-16T17:17:46.546Z,32.43
2019-04-16T17:20:15.675Z,33.60
2019-04-16T17:22:44.838Z,31.43
2019-04-16T17:25:13.958Z,30.27
2019-04-16T17:27:51.250Z,30.80
2019-04-16T17:30:13.849Z,31.57
2019-04-16T17:32:42.955Z,29.70
2019-04-16T17:35:15.445Z,30.17
2019-04-16T17:37:42.912Z,30.10
2019-04-16T17:40:23.062Z,33.90
2019-04-16T17:42:54.512Z,29.80
2019-04-16T17:45:41.270Z,33.73
2019-04-16T17:48:35.438Z,31.70
2019-04-16T17:51:15.069Z,29.50
2019-04-16T17:53:54.745Z,26.50
2019-04-16T17:56:54.679Z,27.03
2019-04-16T17:59:38.665Z,30.03
2019-04-16T18:02:38.878Z,31.33
2019-04-16T18:05:33.005Z,30.17
2019-04-16T18:08:22.646Z,29.80
2019-04-16T18:11:09.830Z,30.53
2019-04-16T18:13:46.723Z,29.03
2019-04-16T18:16:33.895Z,28.03
2019-04-16T18:19:08.030Z,28.43
2019-04-16T18:21:50.939Z,37.53
2019-04-16T18:24:44.854Z,28.90
2019-04-16T18:27:32.932Z,29.47
2019-04-16T18:30:19.620Z,32.43
2019-04-16T18:33:07.564Z,26.80
2019-04-16T18:35:41.908Z,30.63
2019-04-16T18:38:28.669Z,27.73
2019-04-16T18:41:16.697Z,32.80
2019-04-16T18:44:03.800Z,35.40
2019-04-16T18:46:45.440Z,31.93
2019-04-16T18:49:18.209Z,29.00
2019-04-16T18:51:47.349Z,29.00
2019-04-16T18:54:16.379Z,29.30
2019-04-16T18:56:45.499Z,28.97
2019-04-16T18:59:14.756Z,27.90
2019-04-16T19:01:46.920Z,29.53
2019-04-16T19:04:16.097Z,30.20
2019-04-16T19:06:45.376Z,29.83
2019-04-16T19:09:14.459Z,28.70
2019-04-16T19:11:43.903Z,32.10
2019-04-16T19:14:13.997Z,30.37
2019-04-16T19:16:43.821Z,30.20
2019-04-16T19:19:12.899Z,28.50
2019-04-16T19:21:42.601Z,28.00
2019-04-16T19:24:11.972Z,30.83
2019-04-16T19:26:41.283Z,30.47
2019-04-16T19:29:14.494Z,28.97
2019-04-16T19:31:41.221Z,30.17
2019-04-16T19:34:10.749Z,29.40
2019-04-16T19:36:40.071Z,29.10
2019-04-16T19:39:13.516Z,35.77
2019-04-16T19:41:41.353Z,32.53
2019-04-16T19:44:11.142Z,28.50
2019-04-16T19:46:40.395Z,30.93
2019-04-16T19:49:09.681Z,31.60
2019-04-16T19:51:41.091Z,33.40
2019-04-16T19:54:10.040Z,33.43
2019-04-16T19:56:39.179Z,31.90
2019-04-16T19:59:08.365Z,31.73
2019-04-16T20:01:37.835Z,32.97
2019-04-16T20:04:10.745Z,30.50
2019-04-16T20:06:38.272Z,31.90
2019-04-16T20:09:07.846Z,43.50
2019-04-16T20:11:36.962Z,42.57
2019-04-16T20:14:06.106Z,41.07
2019-04-16T20:16:35.414Z,42.10
2019-04-16T20:19:04.792Z,40.20
2019-04-16T20:21:37.460Z,40.67
2019-04-16T20:24:04.636Z,43.17
2019-04-16T20:26:33.950Z,40.40
2019-04-16T20:29:03.117Z,38.97
2019-04-16T20:31:32.289Z,39.80
2019-04-16T20:34:01.677Z,39.77
2019-04-16T20:36:30.941Z,39.87
2019-04-16T20:39:00.235Z,40.67
2019-04-16T20:41:29.522Z,40.97
2019-04-16T20:43:58.622Z,41.27
2019-04-16T20:46:27.733Z,42.93
2019-04-16T20:49:07.602Z,41.90
2019-04-16T20:51:28.612Z,38.90
2019-04-16T20:53:58.117Z,40.50
2019-04-16T20:56:27.117Z,41.80
2019-04-16T20:58:56.258Z,43.87
2019-04-16T21:01:33.994Z,40.07
2019-04-16T21:04:05.054Z,41.70
2019-04-16T21:06:29.957Z,41.67
2019-04-16T21:08:59.154Z,44.13
2019-04-16T21:11:28.261Z,40.13
2019-04-16T21:13:57.346Z,42.40
2019-04-16T21:16:26.457Z,42.30
2019-04-16T21:18:55.547Z,42.30
2019-04-16T21:21:24.732Z,39.33
2019-04-16T21:23:53.811Z,40.47
2019-04-16T21:26:22.741Z,38.73
2019-04-16T21:28:58.517Z,40.17
2019-04-16T21:31:31.105Z,39.50
2019-04-16T21:34:29.533Z,39.60
2019-04-16T21:37:21.168Z,42.50
2019-04-16T21:39:55.593Z,39.53
2019-04-16T21:42:24.569Z,43.43
2019-04-16T21:44:53.716Z,40.10
2019-04-16T21:47:23.672Z,37.27
2019-04-16T21:49:53.831Z,45.53
2019-04-16T21:52:23.825Z,41.83
2019-04-16T21:54:53.200Z,41.13
2019-04-16T21:57:22.297Z,44.03
2019-04-16T21:59:56.770Z,41.23
2019-04-16T22:02:27.232Z,41.43
2019-04-16T22:04:56.529Z,38.97
2019-04-16T22:07:29.063Z,42.90
2019-04-16T22:09:58.052Z,39.70
2019-04-16T22:12:27.352Z,42.93
2019-04-16T22:14:56.451Z,45.03
2019-04-16T22:17:25.410Z,47.57
2019-04-16T22:20:00.784Z,43.93
2019-04-16T22:22:27.567Z,41.40
2019-04-16T22:24:56.394Z,52.33
2019-04-16T22:27:25.470Z,45.10
2019-04-16T22:29:54.452Z,42.00
2019-04-16T22:32:23.597Z,40.80
2019-04-16T22:34:52.611Z,47.23
2019-04-16T22:37:21.691Z,46.60
2019-04-16T22:40:00.041Z,44.37
2019-04-16T22:42:40.930Z,44.67
2019-04-16T22:45:35.852Z,40.00
2019-04-16T22:48:04.936Z,35.37
2019-04-16T22:50:34.790Z,35.73
2019-04-16T22:53:04.788Z,34.90
2019-04-16T22:55:34.237Z,35.07
2019-04-16T22:58:04.905Z,36.20
2019-04-16T23:00:44.393Z,33.27
2019-04-16T23:03:12.861Z,28.63
2019-04-16T23:05:41.777Z,32.40
2019-04-16T23:08:12.941Z,30.30
2019-04-16T23:10:41.582Z,32.53
2019-04-16T23:13:10.685Z,29.20
2019-04-16T23:15:40.354Z,33.47
2019-04-16T23:18:09.512Z,30.23
2019-04-16T23:20:40.732Z,30.77
2019-04-16T23:23:09.758Z,31.50
2019-04-16T23:25:38.668Z,30.90
2019-04-16T23:28:10.638Z,33.47
2019-04-16T23:30:38.481Z,31.10
2019-04-16T23:33:07.644Z,32.50
2019-04-16T23:35:43.157Z,31.23
2019-04-16T23:38:07.485Z,33.93
2019-04-16T23:40:36.525Z,32.83
2019-04-16T23:43:23.163Z,34.83
2019-04-16T23:46:19.192Z,30.73
2019-04-16T23:48:58.360Z,34.37
2019-04-16T23:51:33.671Z,31.30
2019-04-16T23:54:16.368Z,32.60
2019-04-16T23:56:55.404Z,30.47
2019-04-16T23:59:35.760Z,33.80
